createdAt,value
2022-12-23T00:00:02.415Z,28.00
2022-12-23T00:01:02.406Z,28.20
2022-12-23T00:02:02.538Z,28.50
2022-12-23T00:03:02.532Z,27.40
2022-12-23T00:04:02.457Z,26.60
2022-12-23T00:05:02.370Z,26.70
2022-12-23T00:06:02.353Z,26.80
2022-12-23T00:07:02.341Z,26.20
2022-12-23T00:08:02.335Z,27.30
2022-12-23T00:09:02.319Z,26.80
2022-12-23T00:10:02.314Z,27.10
2022-12-23T00:11:02.306Z,26.80
2022-12-23T00:12:02.302Z,25.90
2022-12-23T00:13:02.288Z,26.70
2022-12-23T00:14:02.270Z,26.10
2022-12-23T00:15:02.323Z,26.20
2022-12-23T00:16:02.274Z,26.20
2022-12-23T00:17:02.526Z,27.10
2022-12-23T00:18:02.229Z,25.70
2022-12-23T00:19:02.237Z,25.60
2022-12-23T00:20:02.208Z,25.70
2022-12-23T00:21:08.331Z,25.30
2022-12-23T00:22:02.188Z,25.70
2022-12-23T00:23:02.176Z,25.50
2022-12-23T00:24:02.167Z,25.20
2022-12-23T00:25:02.209Z,25.60
2022-12-23T00:26:02.148Z,25.50
2022-12-23T00:27:02.159Z,26.10
2022-12-23T00:28:02.137Z,26.40
2022-12-23T00:29:02.129Z,26.30
2022-12-23T00:30:02.105Z,25.70
2022-12-23T00:31:02.100Z,25.30
2022-12-23T00:32:02.130Z,24.60
2022-12-23T00:33:02.098Z,24.60
2022-12-23T00:34:02.075Z,25.30
2022-12-23T00:35:02.060Z,26.00
2022-12-23T00:36:02.151Z,26.10
2022-12-23T00:37:02.037Z,25.90
2022-12-23T00:38:02.028Z,25.50
2022-12-23T00:39:02.014Z,24.50
2022-12-23T00:40:06.602Z,23.40
2022-12-23T00:41:01.998Z,24.50
2022-12-23T00:42:02.068Z,24.10
2022-12-23T00:43:01.980Z,24.00
2022-12-23T00:44:01.965Z,24.90
2022-12-23T00:45:01.966Z,25.70
2022-12-23T00:46:01.996Z,26.30
2022-12-23T00:47:01.957Z,26.30
2022-12-23T00:48:01.934Z,28.30
2022-12-23T00:49:01.913Z,28.90
2022-12-23T00:50:01.904Z,29.30
2022-12-23T00:51:01.896Z,29.20
2022-12-23T00:52:01.887Z,28.00
2022-12-23T00:53:01.875Z,28.20
2022-12-23T00:54:01.870Z,27.50
2022-12-23T00:55:01.862Z,28.40
2022-12-23T00:56:01.846Z,29.00
2022-12-23T00:57:01.862Z,29.50
2022-12-23T00:58:01.824Z,29.20
2022-12-23T00:59:01.816Z,29.90
2022-12-23T01:00:01.813Z,30.70
2022-12-23T01:01:01.841Z,30.10
2022-12-23T01:02:02.026Z,29.70
2022-12-23T01:03:01.879Z,30.40
2022-12-23T01:04:01.767Z,31.50
2022-12-23T01:05:01.758Z,29.80
2022-12-23T01:06:01.746Z,30.20
2022-12-23T01:07:01.735Z,30.40
2022-12-23T01:08:01.726Z,30.20
2022-12-23T01:09:01.716Z,30.70
2022-12-23T01:10:01.729Z,31.60
2022-12-23T01:11:01.694Z,31.40
2022-12-23T01:12:01.706Z,30.90
2022-12-23T01:13:01.675Z,29.90
2022-12-23T01:14:01.665Z,29.20
2022-12-23T01:15:01.669Z,28.20
2022-12-23T01:16:01.647Z,28.50
2022-12-23T01:17:01.696Z,28.90
2022-12-23T01:18:01.624Z,29.10
2022-12-23T01:19:01.615Z,28.90
2022-12-23T01:20:01.662Z,29.90
2022-12-23T01:21:01.600Z,29.50
2022-12-23T01:22:01.815Z,30.10
2022-12-23T01:23:01.576Z,29.20
2022-12-23T01:24:01.564Z,29.30
2022-12-23T01:25:01.557Z,29.10
2022-12-23T01:26:01.543Z,28.60
2022-12-23T01:27:01.545Z,27.50
2022-12-23T01:28:01.523Z,27.80
2022-12-23T01:29:01.515Z,28.30
2022-12-23T01:30:01.512Z,27.20
2022-12-23T01:31:01.514Z,28.00
2022-12-23T01:32:01.628Z,28.20
2022-12-23T01:33:01.475Z,28.00
2022-12-23T01:34:01.465Z,27.90
2022-12-23T01:35:01.456Z,27.80
2022-12-23T01:36:01.450Z,27.60
2022-12-23T01:37:01.437Z,25.20
2022-12-23T01:38:01.422Z,25.10
2022-12-23T01:39:01.414Z,23.40
2022-12-23T01:40:01.404Z,22.20
2022-12-23T01:41:01.399Z,22.20
2022-12-23T01:42:01.402Z,23.00
2022-12-23T01:43:01.378Z,22.40
2022-12-23T01:44:01.368Z,23.50
2022-12-23T01:45:01.364Z,24.60
2022-12-23T01:46:01.383Z,25.20
2022-12-23T01:47:01.337Z,25.50
2022-12-23T01:48:01.331Z,25.60
2022-12-23T01:49:01.319Z,25.00
2022-12-23T01:50:01.323Z,25.40
2022-12-23T01:51:01.319Z,26.00
2022-12-23T01:52:01.289Z,25.00
2022-12-23T01:53:06.869Z,24.00
2022-12-23T01:54:01.304Z,24.10
2022-12-23T01:55:01.255Z,23.90
2022-12-23T01:56:01.253Z,22.40
2022-12-23T01:57:01.236Z,23.30
2022-12-23T01:58:01.228Z,22.80
2022-12-23T01:59:01.217Z,21.90
2022-12-23T02:00:01.219Z,22.70
2022-12-23T02:01:01.353Z,23.80
2022-12-23T02:02:01.384Z,24.00
2022-12-23T02:03:01.343Z,24.70
2022-12-23T02:04:01.171Z,24.70
2022-12-23T02:05:01.181Z,25.00
2022-12-23T02:06:01.149Z,25.50
2022-12-23T02:07:01.143Z,25.60
2022-12-23T02:08:01.136Z,25.90
2022-12-23T02:09:01.119Z,26.80
2022-12-23T02:10:01.114Z,26.20
2022-12-23T02:11:01.099Z,26.90
2022-12-23T02:12:01.093Z,26.90
2022-12-23T02:13:01.093Z,27.00
2022-12-23T02:14:01.069Z,26.80
2022-12-23T02:15:01.060Z,26.10
2022-12-23T02:16:01.048Z,27.70
2022-12-23T02:17:01.131Z,26.50
2022-12-23T02:18:01.037Z,26.90
2022-12-23T02:19:01.028Z,27.80
2022-12-23T02:20:01.020Z,28.30
2022-12-23T02:21:00.999Z,27.30
2022-12-23T02:22:00.998Z,26.90
2022-12-23T02:23:00.977Z,26.70
2022-12-23T02:24:00.980Z,27.10
2022-12-23T02:25:00.964Z,27.60
2022-12-23T02:26:00.954Z,27.50
2022-12-23T02:27:00.942Z,27.00
2022-12-23T02:28:00.935Z,27.90
2022-12-23T02:29:00.930Z,27.80
2022-12-23T02:30:00.918Z,27.70
2022-12-23T02:31:00.926Z,27.60
2022-12-23T02:32:00.892Z,28.50
2022-12-23T02:33:00.887Z,27.60
2022-12-23T02:34:00.877Z,29.40
2022-12-23T02:35:00.868Z,29.70
2022-12-23T02:36:00.854Z,29.10
2022-12-23T02:37:00.843Z,29.10
2022-12-23T02:38:00.837Z,31.10
2022-12-23T02:39:00.825Z,30.20
2022-12-23T02:40:00.815Z,30.70
2022-12-23T02:41:00.805Z,29.60
2022-12-23T02:42:00.801Z,30.50
2022-12-23T02:43:00.794Z,31.10
2022-12-23T02:44:00.777Z,31.20
2022-12-23T02:45:00.762Z,31.80
2022-12-23T02:46:00.819Z,30.30
2022-12-23T02:47:00.751Z,31.40
2022-12-23T02:48:00.748Z,31.20
2022-12-23T02:49:00.726Z,31.10
2022-12-23T02:50:00.736Z,29.90
2022-12-23T02:51:00.704Z,30.70
2022-12-23T02:52:00.696Z,30.40
2022-12-23T02:53:00.683Z,31.00
2022-12-23T02:54:00.685Z,30.70
2022-12-23T02:55:00.671Z,31.00
2022-12-23T02:56:00.663Z,30.60
2022-12-23T02:57:00.652Z,31.80
2022-12-23T02:58:00.649Z,30.60
2022-12-23T02:59:00.629Z,31.30
2022-12-23T03:00:00.615Z,31.20
2022-12-23T03:01:00.633Z,32.00
2022-12-23T03:02:00.756Z,32.50
2022-12-23T03:03:00.843Z,32.70
2022-12-23T03:04:00.694Z,33.00
2022-12-23T03:05:01.255Z,33.70
2022-12-23T03:06:00.559Z,33.50
2022-12-23T03:07:04.468Z,33.10
2022-12-23T03:08:00.538Z,34.10
2022-12-23T03:09:00.527Z,32.90
2022-12-23T03:10:00.524Z,33.90
2022-12-23T03:11:00.514Z,34.60
2022-12-23T03:12:00.498Z,34.00
2022-12-23T03:13:00.530Z,34.80
2022-12-23T03:14:00.477Z,35.00
2022-12-23T03:15:00.476Z,35.90
2022-12-23T03:16:00.501Z,35.00
2022-12-23T03:17:00.453Z,35.20
2022-12-23T03:18:00.439Z,35.50
2022-12-23T03:19:00.425Z,34.70
2022-12-23T03:20:00.424Z,33.20
2022-12-23T03:21:00.409Z,32.90
2022-12-23T03:22:00.399Z,31.60
2022-12-23T03:23:00.405Z,33.80
2022-12-23T03:24:00.378Z,34.40
2022-12-23T03:25:00.371Z,35.30
2022-12-23T03:26:00.367Z,34.20
2022-12-23T03:27:00.352Z,35.30
2022-12-23T03:28:00.343Z,34.90
2022-12-23T03:29:00.324Z,35.30
2022-12-23T03:30:00.319Z,36.50
2022-12-23T03:31:00.319Z,36.80
2022-12-23T03:32:00.304Z,36.90
2022-12-23T03:33:00.299Z,37.20
2022-12-23T03:34:00.288Z,36.40
2022-12-23T03:35:00.273Z,35.90
2022-12-23T03:36:00.266Z,35.50
2022-12-23T03:37:00.251Z,33.80
2022-12-23T03:38:00.241Z,33.90
2022-12-23T03:39:00.235Z,34.50
2022-12-23T03:40:00.224Z,36.60
2022-12-23T03:41:00.217Z,36.90
2022-12-23T03:42:00.211Z,36.50
2022-12-23T03:43:00.187Z,36.90
2022-12-23T03:44:00.181Z,37.40
2022-12-23T03:46:00.213Z,35.40
2022-12-23T03:47:00.151Z,36.20
2022-12-23T03:48:00.149Z,35.40
2022-12-23T03:49:00.134Z,34.10
2022-12-23T03:50:00.198Z,34.70
2022-12-23T03:51:00.144Z,34.80
2022-12-23T03:52:00.164Z,34.10
2022-12-23T03:53:00.115Z,33.80
2022-12-23T03:54:00.088Z,35.00
2022-12-23T03:55:00.095Z,34.00
2022-12-23T03:56:00.082Z,34.60
2022-12-23T03:57:00.065Z,36.00
2022-12-23T03:58:00.083Z,36.20
2022-12-23T03:59:00.061Z,38.90
2022-12-23T04:00:00.079Z,39.00
2022-12-23T04:01:00.018Z,39.50
2022-12-23T04:02:00.067Z,40.50
2022-12-23T04:03:00.242Z,42.70
2022-12-23T04:04:00.024Z,42.70
2022-12-23T04:05:00.076Z,42.50
2022-12-23T04:05:59.970Z,41.70
2022-12-23T04:06:59.958Z,43.20
2022-12-23T04:07:59.949Z,43.00
2022-12-23T04:08:59.941Z,42.80
2022-12-23T04:09:59.948Z,41.00
2022-12-23T04:10:59.919Z,39.60
2022-12-23T04:11:59.912Z,36.20
2022-12-23T04:12:59.897Z,37.10
2022-12-23T04:13:59.890Z,37.30
2022-12-23T04:14:59.882Z,43.50
2022-12-23T04:15:59.921Z,42.80
2022-12-23T04:16:59.864Z,40.60
2022-12-23T04:17:59.868Z,38.10
2022-12-23T04:18:59.838Z,39.00
2022-12-23T04:19:59.831Z,39.40
2022-12-23T04:20:59.827Z,42.70
2022-12-23T04:21:59.810Z,43.70
2022-12-23T04:22:59.798Z,43.80
2022-12-23T04:23:59.792Z,42.90
2022-12-23T04:24:59.780Z,39.00
2022-12-23T04:25:59.777Z,38.80
2022-12-23T04:26:59.761Z,41.60
2022-12-23T04:27:59.746Z,40.20
2022-12-23T04:28:59.745Z,37.80
2022-12-23T04:29:59.740Z,40.60
2022-12-23T04:30:59.764Z,39.60
2022-12-23T04:31:59.809Z,36.50
2022-12-23T04:32:59.712Z,37.10
2022-12-23T04:33:59.700Z,40.40
2022-12-23T04:34:59.695Z,39.70
2022-12-23T04:35:59.673Z,40.80
2022-12-23T04:36:59.662Z,44.80
2022-12-23T04:37:59.658Z,45.50
2022-12-23T04:38:59.645Z,46.80
2022-12-23T04:39:59.639Z,45.70
2022-12-23T04:40:59.628Z,44.70
2022-12-23T04:41:59.628Z,42.30
2022-12-23T04:42:59.611Z,43.20
2022-12-23T04:43:59.594Z,42.00
2022-12-23T04:44:59.585Z,41.80
2022-12-23T04:45:59.586Z,41.00
2022-12-23T04:46:59.601Z,40.60
2022-12-23T04:47:59.562Z,38.80
2022-12-23T04:48:59.544Z,39.10
2022-12-23T04:49:59.529Z,39.90
2022-12-23T04:50:59.539Z,42.60
2022-12-23T04:51:59.515Z,43.60
2022-12-23T04:52:59.502Z,41.70
2022-12-23T04:53:59.492Z,43.20
2022-12-23T04:54:59.515Z,42.10
2022-12-23T04:55:59.475Z,40.80
2022-12-23T04:56:59.466Z,48.50
2022-12-23T04:57:59.457Z,48.20
2022-12-23T04:58:59.444Z,45.60
2022-12-23T04:59:59.442Z,43.20
2022-12-23T05:00:59.442Z,42.60
2022-12-23T05:01:59.639Z,44.10
2022-12-23T05:02:59.603Z,45.40
2022-12-23T05:03:59.399Z,46.10
2022-12-23T05:04:59.397Z,48.10
2022-12-23T05:05:59.376Z,49.00
2022-12-23T05:06:59.369Z,47.40
2022-12-23T05:07:59.431Z,47.60
2022-12-23T05:08:59.360Z,47.90
2022-12-23T05:09:59.336Z,43.80
2022-12-23T05:10:59.328Z,40.00
2022-12-23T05:11:59.330Z,43.70
2022-12-23T05:12:59.312Z,44.20
2022-12-23T05:13:59.295Z,43.10
2022-12-23T05:14:59.293Z,46.90
2022-12-23T05:15:59.317Z,44.40
2022-12-23T05:17:03.740Z,46.10
2022-12-23T05:17:59.256Z,43.10
2022-12-23T05:18:59.245Z,38.30
2022-12-23T05:19:59.233Z,41.30
2022-12-23T05:20:59.228Z,39.20
2022-12-23T05:21:59.216Z,43.20
2022-12-23T05:22:59.208Z,42.50
2022-12-23T05:23:59.196Z,42.70
2022-12-23T05:24:59.195Z,41.20
2022-12-23T05:25:59.180Z,41.60
2022-12-23T05:27:00.451Z,40.20
2022-12-23T05:27:59.160Z,42.80
2022-12-23T05:28:59.170Z,45.90
2022-12-23T05:29:59.144Z,51.60
2022-12-23T05:30:59.183Z,48.80
2022-12-23T05:31:59.156Z,44.60
2022-12-23T05:32:59.157Z,49.60
2022-12-23T05:34:05.676Z,50.30
2022-12-23T05:34:59.134Z,51.00
2022-12-23T05:35:59.084Z,50.70
2022-12-23T05:36:59.069Z,54.80
2022-12-23T05:37:59.064Z,49.70
2022-12-23T05:38:59.062Z,46.40
2022-12-23T05:39:59.052Z,47.40
2022-12-23T05:40:59.028Z,47.80
2022-12-23T05:41:59.050Z,45.80
2022-12-23T05:42:59.005Z,45.50
2022-12-23T05:43:59.013Z,44.30
2022-12-23T05:44:58.988Z,48.30
2022-12-23T05:45:59.054Z,47.60
2022-12-23T05:46:58.969Z,50.90
2022-12-23T05:47:58.972Z,49.10
2022-12-23T05:48:58.966Z,45.00
2022-12-23T05:49:58.936Z,42.50
2022-12-23T05:50:58.934Z,47.30
2022-12-23T05:51:58.923Z,45.10
2022-12-23T05:52:58.914Z,45.20
2022-12-23T05:53:58.900Z,43.90
2022-12-23T05:54:58.889Z,47.90
2022-12-23T05:55:58.900Z,57.30
2022-12-23T05:56:58.879Z,49.80
2022-12-23T05:57:58.864Z,53.90
2022-12-23T05:58:58.854Z,56.80
2022-12-23T05:59:58.857Z,62.80
2022-12-23T06:00:58.834Z,53.20
2022-12-23T06:01:59.057Z,50.00
2022-12-23T06:02:58.977Z,51.40
2022-12-23T06:03:58.901Z,46.90
2022-12-23T06:04:58.793Z,43.80
2022-12-23T06:05:58.783Z,48.00
2022-12-23T06:06:58.771Z,48.00
2022-12-23T06:07:58.763Z,46.50
2022-12-23T06:09:00.174Z,46.80
2022-12-23T06:09:58.755Z,47.30
2022-12-23T06:10:58.731Z,44.10
2022-12-23T06:11:58.728Z,44.00
2022-12-23T06:12:58.886Z,43.00
2022-12-23T06:13:58.702Z,42.50
2022-12-23T06:14:58.688Z,42.20
2022-12-23T06:15:58.686Z,42.60
2022-12-23T06:16:58.808Z,42.90
2022-12-23T06:17:58.663Z,42.70
2022-12-23T06:18:58.660Z,42.00
2022-12-23T06:19:58.646Z,41.30
2022-12-23T06:20:58.634Z,40.80
2022-12-23T06:21:58.633Z,40.30
2022-12-23T06:22:58.617Z,41.80
2022-12-23T06:23:58.612Z,44.10
2022-12-23T06:24:58.597Z,43.80
2022-12-23T06:25:58.584Z,42.00
2022-12-23T06:26:58.578Z,42.00
2022-12-23T06:27:58.571Z,42.60
2022-12-23T06:28:58.589Z,40.10
2022-12-23T06:29:58.545Z,40.80
2022-12-23T06:30:58.544Z,43.90
2022-12-23T06:31:58.589Z,43.70
2022-12-23T06:32:58.536Z,43.90
2022-12-23T06:33:58.525Z,43.30
2022-12-23T06:34:58.519Z,41.70
2022-12-23T06:35:58.488Z,39.40
2022-12-23T06:36:58.478Z,39.60
2022-12-23T06:37:58.487Z,39.40
2022-12-23T06:38:58.458Z,38.10
2022-12-23T06:39:58.454Z,37.40
2022-12-23T06:40:58.440Z,41.50
2022-12-23T06:41:58.430Z,43.60
2022-12-23T06:42:58.421Z,40.70
2022-12-23T06:43:58.715Z,38.20
2022-12-23T06:44:58.461Z,37.50
2022-12-23T06:45:58.465Z,37.10
2022-12-23T06:46:58.378Z,37.70
2022-12-23T06:47:58.372Z,39.50
2022-12-23T06:48:58.377Z,39.40
2022-12-23T06:49:58.370Z,38.90
2022-12-23T06:50:58.339Z,36.50
2022-12-23T06:51:58.337Z,35.50
2022-12-23T06:52:58.321Z,38.30
2022-12-23T06:53:58.313Z,37.20
2022-12-23T06:54:58.313Z,38.00
2022-12-23T06:55:58.294Z,36.70
2022-12-23T06:56:58.285Z,36.10
2022-12-23T06:57:58.286Z,36.10
2022-12-23T06:58:58.264Z,35.80
2022-12-23T06:59:58.271Z,34.30
2022-12-23T07:00:58.301Z,35.90
2022-12-23T07:01:58.489Z,33.80
2022-12-23T07:02:58.360Z,34.90
2022-12-23T07:03:58.222Z,32.60
2022-12-23T07:04:58.211Z,36.80
2022-12-23T07:05:58.194Z,33.00
2022-12-23T07:06:58.187Z,42.90
2022-12-23T07:07:58.183Z,42.40
2022-12-23T07:08:58.165Z,40.10
2022-12-23T07:09:58.157Z,43.00
2022-12-23T07:10:58.144Z,41.00
2022-12-23T07:11:58.141Z,41.00
2022-12-23T07:12:58.129Z,40.60
2022-12-23T07:13:58.113Z,39.40
2022-12-23T07:14:58.108Z,42.70
2022-12-23T07:15:58.111Z,44.10
2022-12-23T07:16:58.216Z,45.00
2022-12-23T07:17:58.073Z,44.10
2022-12-23T07:18:58.058Z,43.90
2022-12-23T07:19:58.051Z,40.90
2022-12-23T07:20:58.043Z,41.40
2022-12-23T07:21:58.043Z,43.70
2022-12-23T07:22:58.022Z,43.70
2022-12-23T07:23:58.057Z,44.20
2022-12-23T07:24:58.021Z,43.80
2022-12-23T07:25:58.003Z,41.40
2022-12-23T07:26:57.982Z,44.30
2022-12-23T07:27:57.983Z,42.20
2022-12-23T07:28:57.986Z,41.90
2022-12-23T07:29:57.956Z,42.10
2022-12-23T07:30:58.015Z,41.40
2022-12-23T07:31:58.026Z,40.60
2022-12-23T07:32:57.923Z,40.10
2022-12-23T07:33:57.919Z,42.30
2022-12-23T07:34:57.905Z,43.60
2022-12-23T07:35:57.894Z,43.30
2022-12-23T07:36:57.888Z,42.40
2022-12-23T07:37:57.877Z,43.10
2022-12-23T07:38:57.867Z,43.30
2022-12-23T07:39:57.979Z,42.60
2022-12-23T07:40:57.844Z,43.40
2022-12-23T07:42:43.366Z,42.60
2022-12-23T07:42:57.822Z,42.80
2022-12-23T07:43:57.822Z,42.50
2022-12-23T07:44:57.805Z,42.40
2022-12-23T07:46:00.713Z,41.80
2022-12-23T07:46:57.783Z,43.70
2022-12-23T07:47:57.771Z,44.00
2022-12-23T07:48:57.771Z,43.30
2022-12-23T07:49:57.756Z,42.90
2022-12-23T07:50:57.742Z,42.60
2022-12-23T07:51:57.734Z,44.80
2022-12-23T07:52:57.724Z,45.20
2022-12-23T07:53:57.723Z,44.30
2022-12-23T07:54:57.702Z,44.10
2022-12-23T07:55:57.692Z,43.10
2022-12-23T07:56:57.682Z,44.00
2022-12-23T07:57:57.674Z,43.20
2022-12-23T07:58:57.664Z,42.20
2022-12-23T07:59:58.019Z,42.90
2022-12-23T08:00:57.737Z,41.90
2022-12-23T08:01:57.850Z,43.70
2022-12-23T08:02:57.696Z,42.80
2022-12-23T08:03:57.652Z,41.30
2022-12-23T08:04:57.648Z,41.50
2022-12-23T08:05:57.593Z,41.60
2022-12-23T08:06:57.588Z,41.60
2022-12-23T08:07:57.574Z,40.70
2022-12-23T08:08:57.569Z,40.90
2022-12-23T08:09:57.552Z,41.80
2022-12-23T08:10:57.546Z,40.10
2022-12-23T08:11:57.561Z,39.80
2022-12-23T08:12:57.532Z,40.70
2022-12-23T08:13:57.511Z,39.80
2022-12-23T08:14:57.512Z,39.20
2022-12-23T08:15:57.494Z,39.00
2022-12-23T08:16:57.549Z,39.90
2022-12-23T08:17:57.484Z,40.90
2022-12-23T08:18:57.463Z,40.30
2022-12-23T08:19:57.450Z,43.40
2022-12-23T08:20:57.451Z,41.00
2022-12-23T08:21:57.435Z,42.50
2022-12-23T08:22:57.429Z,41.20
2022-12-23T08:23:57.413Z,44.90
2022-12-23T08:24:57.403Z,42.40
2022-12-23T08:25:57.396Z,38.60
2022-12-23T08:26:57.386Z,42.20
2022-12-23T08:27:57.376Z,39.40
2022-12-23T08:28:57.365Z,38.90
2022-12-23T08:29:57.368Z,39.10
2022-12-23T08:30:57.407Z,38.50
2022-12-23T08:31:57.334Z,37.90
2022-12-23T08:32:57.324Z,39.00
2022-12-23T08:33:57.325Z,36.40
2022-12-23T08:34:57.326Z,36.90
2022-12-23T08:35:57.297Z,37.40
2022-12-23T08:36:57.285Z,36.80
2022-12-23T08:37:57.276Z,38.50
2022-12-23T08:38:57.281Z,38.20
2022-12-23T08:39:57.261Z,36.70
2022-12-23T08:40:57.252Z,35.90
2022-12-23T08:41:57.239Z,36.10
2022-12-23T08:42:57.233Z,33.70
2022-12-23T08:43:57.221Z,36.60
2022-12-23T08:44:57.218Z,36.30
2022-12-23T08:45:57.259Z,33.70
2022-12-23T08:46:57.192Z,33.10
2022-12-23T08:47:57.180Z,34.80
2022-12-23T08:48:57.175Z,32.50
2022-12-23T08:49:57.166Z,35.20
2022-12-23T08:50:57.150Z,33.20
2022-12-23T08:51:57.141Z,32.30
2022-12-23T08:52:57.138Z,33.50
2022-12-23T08:54:00.666Z,32.10
2022-12-23T08:54:57.124Z,30.70
2022-12-23T08:55:57.103Z,33.60
2022-12-23T08:56:57.095Z,32.10
2022-12-23T08:57:57.084Z,31.10
2022-12-23T08:58:57.095Z,31.40
2022-12-23T08:59:57.070Z,29.80
2022-12-23T09:00:57.055Z,31.80
2022-12-23T09:01:57.190Z,33.20
2022-12-23T09:02:57.141Z,30.10
2022-12-23T09:03:57.091Z,30.70
2022-12-23T09:04:57.017Z,30.40
2022-12-23T09:05:57.013Z,29.40
2022-12-23T09:06:56.995Z,29.20
2022-12-23T09:07:56.992Z,28.80
2022-12-23T09:08:56.982Z,28.30
2022-12-23T09:09:56.977Z,28.10
2022-12-23T09:10:56.959Z,25.10
2022-12-23T09:11:56.956Z,25.40
2022-12-23T09:12:58.167Z,24.10
2022-12-23T09:13:56.940Z,23.80
2022-12-23T09:14:56.924Z,24.10
2022-12-23T09:15:56.952Z,25.30
2022-12-23T09:16:56.903Z,24.30
2022-12-23T09:17:56.895Z,23.70
2022-12-23T09:18:56.891Z,24.40
2022-12-23T09:19:56.875Z,24.50
2022-12-23T09:20:56.879Z,24.40
2022-12-23T09:21:57.080Z,25.20
2022-12-23T09:22:56.868Z,24.20
2022-12-23T09:23:56.844Z,22.10
2022-12-23T09:25:03.100Z,22.30
2022-12-23T09:25:56.814Z,21.60
2022-12-23T09:26:56.804Z,22.60
2022-12-23T09:27:56.816Z,22.10
2022-12-23T09:28:56.785Z,22.20
2022-12-23T09:29:56.778Z,21.90
2022-12-23T09:30:56.819Z,22.50
2022-12-23T09:31:56.833Z,21.90
2022-12-23T09:32:56.747Z,23.20
2022-12-23T09:33:56.737Z,21.90
2022-12-23T09:34:56.727Z,22.40
2022-12-23T09:35:56.719Z,20.10
2022-12-23T09:36:56.706Z,21.70
2022-12-23T09:37:56.691Z,23.20
2022-12-23T09:38:56.687Z,23.40
2022-12-23T09:39:56.692Z,23.50
2022-12-23T09:40:57.343Z,21.60
2022-12-23T09:41:56.658Z,21.70
2022-12-23T09:42:56.657Z,22.00
2022-12-23T09:43:56.647Z,22.10
2022-12-23T09:44:56.628Z,21.20
2022-12-23T09:45:56.676Z,20.00
2022-12-23T09:46:56.643Z,20.80
2022-12-23T09:47:56.602Z,22.30
2022-12-23T09:48:56.599Z,21.30
2022-12-23T09:49:56.582Z,21.70
2022-12-23T09:50:56.585Z,22.10
2022-12-23T09:51:56.558Z,22.40
2022-12-23T09:52:56.553Z,20.60
2022-12-23T09:53:56.538Z,21.90
2022-12-23T09:54:56.547Z,21.10
2022-12-23T09:55:56.523Z,21.80
2022-12-23T09:56:56.512Z,21.20
2022-12-23T09:57:56.633Z,21.60
2022-12-23T09:58:56.489Z,22.40
2022-12-23T09:59:56.504Z,21.70
2022-12-23T10:00:56.469Z,22.40
2022-12-23T10:01:56.624Z,21.50
2022-12-23T10:02:56.863Z,22.10
2022-12-23T10:03:56.515Z,22.60
2022-12-23T10:04:56.443Z,21.90
2022-12-23T10:05:56.464Z,21.60
2022-12-23T10:07:02.513Z,21.90
2022-12-23T10:07:56.395Z,21.80
2022-12-23T10:08:56.392Z,21.70
2022-12-23T10:09:56.390Z,21.30
2022-12-23T10:10:56.372Z,21.70
2022-12-23T10:11:56.376Z,20.30
2022-12-23T10:12:56.355Z,20.60
2022-12-23T10:13:56.467Z,19.60
2022-12-23T10:14:56.339Z,20.00
2022-12-23T10:15:56.397Z,20.10
2022-12-23T10:16:56.311Z,19.10
2022-12-23T10:17:56.308Z,18.80
2022-12-23T10:18:56.300Z,19.20
2022-12-23T10:19:56.283Z,18.90
2022-12-23T10:20:56.273Z,18.70
2022-12-23T10:21:56.266Z,18.30
2022-12-23T10:22:56.256Z,18.70
2022-12-23T10:23:56.247Z,18.70
2022-12-23T10:24:56.238Z,19.90
2022-12-23T10:25:56.233Z,19.90
2022-12-23T10:26:56.216Z,19.90
2022-12-23T10:27:56.243Z,19.40
2022-12-23T10:28:56.203Z,18.90
2022-12-23T10:29:56.188Z,18.40
2022-12-23T10:31:23.933Z,18.80
2022-12-23T10:31:56.239Z,19.60
2022-12-23T10:32:56.160Z,18.70
2022-12-23T10:33:56.149Z,18.50
2022-12-23T10:34:56.142Z,19.20
2022-12-23T10:35:56.154Z,19.20
2022-12-23T10:36:56.161Z,18.50
2022-12-23T10:37:56.113Z,17.40
2022-12-23T10:38:56.102Z,17.30
2022-12-23T10:39:56.094Z,18.30
2022-12-23T10:40:56.096Z,18.00
2022-12-23T10:41:56.097Z,17.90
2022-12-23T10:42:56.065Z,16.60
2022-12-23T10:43:56.058Z,16.50
2022-12-23T10:44:56.157Z,17.00
2022-12-23T10:45:56.039Z,18.00
2022-12-23T10:46:56.073Z,16.80
2022-12-23T10:47:56.020Z,17.20
2022-12-23T10:48:56.014Z,16.40
2022-12-23T10:49:56.015Z,16.00
2022-12-23T10:50:56.004Z,15.60
2022-12-23T10:51:55.983Z,16.20
2022-12-23T10:52:55.977Z,15.50
2022-12-23T10:53:55.970Z,15.90
2022-12-23T10:54:55.963Z,16.10
2022-12-23T10:55:55.946Z,16.10
2022-12-23T10:56:55.934Z,15.50
2022-12-23T10:57:56.006Z,15.90
2022-12-23T10:58:55.918Z,15.60
2022-12-23T10:59:55.905Z,16.50
2022-12-23T11:00:55.957Z,15.30
2022-12-23T11:01:56.095Z,15.10
2022-12-23T11:02:56.021Z,15.60
2022-12-23T11:03:55.978Z,16.20
2022-12-23T11:04:55.864Z,16.40
2022-12-23T11:05:55.858Z,16.30
2022-12-23T11:07:18.233Z,15.80
2022-12-23T11:07:55.833Z,15.70
2022-12-23T11:08:55.823Z,15.90
2022-12-23T11:09:55.826Z,15.90
2022-12-23T11:10:55.806Z,16.50
2022-12-23T11:11:55.817Z,17.00
2022-12-23T11:12:55.790Z,16.30
2022-12-23T11:13:55.777Z,16.00
2022-12-23T11:14:55.772Z,16.60
2022-12-23T11:15:55.782Z,16.10
2022-12-23T11:16:55.800Z,15.80
2022-12-23T11:17:55.754Z,17.00
2022-12-23T11:18:55.729Z,16.30
2022-12-23T11:19:55.721Z,17.10
2022-12-23T11:20:55.707Z,17.30
2022-12-23T11:21:55.698Z,18.00
2022-12-23T11:22:55.693Z,17.80
2022-12-23T11:23:55.684Z,17.80
2022-12-23T11:24:55.733Z,17.10
2022-12-23T11:25:55.666Z,16.80
2022-12-23T11:26:55.656Z,17.10
2022-12-23T11:27:55.643Z,16.80
2022-12-23T11:28:55.650Z,16.70
2022-12-23T11:29:55.637Z,16.70
2022-12-23T11:30:56.899Z,16.80
2022-12-23T11:31:55.667Z,17.20
2022-12-23T11:32:55.601Z,17.00
2022-12-23T11:33:55.595Z,16.90
2022-12-23T11:34:55.637Z,17.60
2022-12-23T11:35:55.565Z,17.60
2022-12-23T11:36:58.733Z,18.50
2022-12-23T11:37:55.549Z,18.50
2022-12-23T11:38:55.538Z,18.70
2022-12-23T11:39:55.525Z,19.40
2022-12-23T11:40:55.519Z,19.80
2022-12-23T11:41:55.510Z,19.50
2022-12-23T11:42:55.522Z,18.90
2022-12-23T11:43:55.492Z,18.20
2022-12-23T11:44:55.485Z,18.40
2022-12-23T11:45:55.543Z,18.10
2022-12-23T11:46:55.461Z,18.40
2022-12-23T11:47:55.450Z,17.90
2022-12-23T11:48:55.525Z,18.50
2022-12-23T11:49:55.437Z,18.00
2022-12-23T11:50:55.424Z,18.50
2022-12-23T11:51:56.382Z,18.60
2022-12-23T11:52:55.402Z,18.80
2022-12-23T11:53:55.403Z,18.70
2022-12-23T11:54:55.390Z,19.10
2022-12-23T11:55:55.374Z,19.10
2022-12-23T11:56:55.433Z,19.50
2022-12-23T11:57:55.354Z,20.10
2022-12-23T11:58:55.350Z,19.70
2022-12-23T11:59:55.338Z,21.00
2022-12-23T12:00:56.241Z,20.60
2022-12-23T12:01:55.357Z,21.70
2022-12-23T12:02:55.420Z,21.60
2022-12-23T12:03:55.383Z,22.40
2022-12-23T12:04:55.310Z,21.60
2022-12-23T12:05:55.279Z,22.20
2022-12-23T12:06:56.817Z,22.80
2022-12-23T12:07:55.259Z,22.40
2022-12-23T12:08:55.256Z,22.50
2022-12-23T12:09:55.238Z,22.10
2022-12-23T12:10:55.235Z,22.30
2022-12-23T12:11:55.221Z,22.20
2022-12-23T12:12:55.238Z,22.00
2022-12-23T12:13:55.204Z,22.20
2022-12-23T12:14:55.197Z,22.60
2022-12-23T12:15:55.185Z,22.20
2022-12-23T12:16:55.241Z,23.20
2022-12-23T12:17:55.167Z,22.80
2022-12-23T12:18:55.912Z,23.10
2022-12-23T12:19:55.149Z,21.90
2022-12-23T12:20:55.141Z,22.30
2022-12-23T12:21:55.131Z,22.20
2022-12-23T12:22:55.120Z,22.20
2022-12-23T12:24:14.730Z,22.00
2022-12-23T12:24:55.103Z,22.50
2022-12-23T12:25:55.098Z,20.90
2022-12-23T12:26:55.084Z,21.70
2022-12-23T12:27:55.073Z,21.50
2022-12-23T12:28:55.352Z,21.10
2022-12-23T12:29:55.058Z,21.50
2022-12-23T12:30:55.088Z,19.40
2022-12-23T12:31:55.045Z,19.80
2022-12-23T12:32:55.026Z,19.00
2022-12-23T12:33:55.015Z,20.20
2022-12-23T12:34:55.039Z,19.20
2022-12-23T12:35:58.917Z,19.60
2022-12-23T12:36:55.124Z,20.10
2022-12-23T12:37:54.977Z,19.50
2022-12-23T12:38:54.973Z,17.30
2022-12-23T12:39:54.968Z,17.80
2022-12-23T12:40:54.961Z,17.00
2022-12-23T12:41:58.494Z,15.80
2022-12-23T12:42:54.935Z,17.00
2022-12-23T12:43:54.924Z,17.30
2022-12-23T12:44:54.924Z,18.40
2022-12-23T12:45:54.946Z,16.40
2022-12-23T12:46:54.897Z,17.80
2022-12-23T12:47:58.155Z,17.50
2022-12-23T12:48:54.882Z,17.70
2022-12-23T12:49:54.870Z,17.20
2022-12-23T12:50:54.862Z,16.50
2022-12-23T12:51:54.857Z,18.70
2022-12-23T12:52:54.845Z,19.30